Time;durP1;ratioP1;P1;durP2;ratioP2;P2;SDS_P1;SDS_P2;PMS_P1;PMS_P2;Temp;Humidity;BMP_temperature;BMP_pressure;BME280_temperature;BME280_humidity;BME280_pressure;Samples;Min_cycle;Max_cycle;Signal;HPM_P1;HPM_P2
2021/04/15 00:00:25;;;;;;;1.43;1.00;;;22.70;28.60;;;;;;5010844;28;20238;-63
2021/04/15 00:02:51;;;;;;;1.37;1.20;;;22.80;28.60;;;;;;5012802;28;20646;-63
2021/04/15 00:05:17;;;;;;;1.10;1.10;;;22.80;28.50;;;;;;5009590;28;20234;-63
2021/04/15 00:07:43;;;;;;;1.33;1.13;;;22.80;28.50;;;;;;5025865;23;20253;-61
2021/04/15 00:10:09;;;;;;;1.00;1.00;;;22.80;28.40;;;;;;5019559;28;20664;-61
2021/04/15 00:12:35;;;;;;;1.03;1.03;;;22.80;28.30;;;;;;5030936;28;20202;-61
2021/04/15 00:15:01;;;;;;;1.43;1.10;;;22.80;28.40;;;;;;5028731;28;20203;-60
2021/04/15 00:17:27;;;;;;;2.00;1.13;;;22.80;28.40;;;;;;5030498;28;20571;-61
2021/04/15 00:19:53;;;;;;;1.73;1.10;;;22.80;28.40;;;;;;5027855;28;20234;-61
2021/04/15 00:22:19;;;;;;;1.13;1.03;;;22.80;28.30;;;;;;5028639;28;20206;-61
2021/04/15 00:24:45;;;;;;;1.03;0.90;;;22.70;28.30;;;;;;5029459;28;20628;-62
2021/04/15 00:27:11;;;;;;;1.10;0.90;;;22.80;28.30;;;;;;5030983;28;20209;-62
2021/04/15 00:29:37;;;;;;;0.93;0.90;;;22.70;28.20;;;;;;5028663;28;20248;-62
2021/04/15 00:32:03;;;;;;;1.17;1.00;;;22.70;28.20;;;;;;5029356;28;20194;-62
2021/04/15 00:34:29;;;;;;;2.00;0.97;;;22.80;28.20;;;;;;5029300;28;20253;-61
2021/04/15 00:36:55;;;;;;;2.17;1.23;;;22.70;28.20;;;;;;5029724;28;20205;-62
2021/04/15 00:39:21;;;;;;;1.43;1.10;;;22.70;28.10;;;;;;5030721;28;20214;-62
2021/04/15 00:41:46;;;;;;;1.20;1.10;;;22.70;28.20;;;;;;5028093;28;20206;-62
2021/04/15 00:44:12;;;;;;;2.07;1.10;;;22.70;28.20;;;;;;5030345;28;20584;-62
2021/04/15 00:46:38;;;;;;;1.20;0.90;;;22.70;28.20;;;;;;5029750;28;20244;-61
2021/04/15 00:49:04;;;;;;;1.30;1.03;;;22.70;28.20;;;;;;5028791;28;20232;-61
2021/04/15 00:51:30;;;;;;;1.13;1.03;;;22.70;28.20;;;;;;5027445;28;20232;-61
2021/04/15 00:53:56;;;;;;;0.90;0.90;;;22.70;28.20;;;;;;5029709;28;20316;-60
2021/04/15 00:56:22;;;;;;;1.27;1.17;;;22.70;28.20;;;;;;5029280;28;20210;-61
2021/04/15 00:58:48;;;;;;;2.33;1.10;;;22.70;28.20;;;;;;5030131;28;20212;-62
2021/04/15 01:01:14;;;;;;;1.30;1.20;;;22.70;28.20;;;;;;5029580;28;20199;-62
2021/04/15 01:03:40;;;;;;;2.47;1.10;;;22.70;28.20;;;;;;5030361;28;20217;-61
2021/04/15 01:08:38;;;;;;;1.93;0.97;;;22.70;28.20;;;;;;4942776;28;585936;-53
2021/04/15 01:11:04;;;;;;;1.00;1.00;;;22.70;28.20;;;;;;4966446;28;20213;-52
2021/04/15 01:13:30;;;;;;;1.10;1.00;;;22.70;28.20;;;;;;4972043;28;20219;-55
2021/04/15 01:15:56;;;;;;;1.00;1.00;;;22.70;28.20;;;;;;4971825;28;20211;-53
2021/04/15 01:18:22;;;;;;;0.90;0.90;;;22.70;28.20;;;;;;4971643;28;20208;-55
2021/04/15 01:20:48;;;;;;;1.07;1.00;;;22.70;28.20;;;;;;4971888;28;20235;-55
2021/04/15 01:23:14;;;;;;;1.20;1.10;;;22.80;28.20;;;;;;4971745;28;20215;-55
2021/04/15 01:25:40;;;;;;;1.03;1.00;;;22.80;28.20;;;;;;4969518;28;20231;-56
2021/04/15 01:28:06;;;;;;;1.10;1.00;;;22.80;28.30;;;;;;4972016;28;20207;-56
2021/04/15 01:30:32;;;;;;;1.20;1.10;;;22.70;28.20;;;;;;4971500;28;20671;-55
2021/04/15 01:32:58;;;;;;;1.00;1.00;;;22.70;28.20;;;;;;4972118;28;20204;-55
2021/04/15 01:35:24;;;;;;;1.03;1.00;;;22.70;28.20;;;;;;4959197;28;20235;-55
2021/04/15 01:37:50;;;;;;;1.20;1.10;;;22.70;28.20;;;;;;4971073;28;20226;-55
2021/04/15 01:40:16;;;;;;;1.00;1.00;;;22.70;28.30;;;;;;4971188;28;20213;-55
2021/04/15 01:42:42;;;;;;;1.07;1.07;;;22.70;28.30;;;;;;4971454;28;20207;-56
2021/04/15 01:45:08;;;;;;;1.95;1.10;;;22.70;28.30;;;;;;4971416;28;20596;-55
2021/04/15 01:47:34;;;;;;;1.17;1.07;;;22.70;28.30;;;;;;4971094;28;20223;-55
2021/04/15 01:50:00;;;;;;;1.50;1.00;;;22.70;28.40;;;;;;4962564;28;20657;-55
2021/04/15 01:52:26;;;;;;;2.33;1.10;;;22.70;28.30;;;;;;4958041;28;20204;-54
2021/04/15 01:54:52;;;;;;;1.40;0.97;;;22.70;28.40;;;;;;4972544;28;20558;-53
2021/04/15 01:57:18;;;;;;;1.27;1.13;;;22.70;28.30;;;;;;4971101;28;20228;-56
2021/04/15 01:59:44;;;;;;;1.37;1.00;;;22.70;28.40;;;;;;4971166;28;20207;-53
2021/04/15 02:02:10;;;;;;;1.17;1.03;;;22.70;28.30;;;;;;4971799;28;20207;-54
2021/04/15 02:04:36;;;;;;;1.20;1.10;;;22.70;28.30;;;;;;4971397;28;20309;-57
2021/04/15 02:07:02;;;;;;;1.50;1.10;;;22.70;28.30;;;;;;4971769;28;20227;-55
2021/04/15 02:09:28;;;;;;;0.90;0.90;;;22.70;28.30;;;;;;4970889;28;20224;-56
2021/04/15 02:11:54;;;;;;;0.87;0.87;;;22.70;28.30;;;;;;4971379;28;20204;-56
2021/04/15 02:14:20;;;;;;;1.80;1.00;;;22.70;28.40;;;;;;4969709;28;20210;-56
2021/04/15 02:16:45;;;;;;;0.87;0.87;;;22.70;28.40;;;;;;4968798;28;20282;-55
2021/04/15 02:19:11;;;;;;;1.37;1.00;;;22.70;28.30;;;;;;4970919;28;20218;-56
2021/04/15 02:21:37;;;;;;;1.20;1.10;;;22.70;28.40;;;;;;4970222;28;20977;-56
2021/04/15 02:24:03;;;;;;;1.23;0.90;;;22.70;28.40;;;;;;4970363;28;20210;-55
2021/04/15 02:26:29;;;;;;;1.00;1.00;;;22.70;28.30;;;;;;4971458;28;20229;-54
2021/04/15 02:28:55;;;;;;;1.30;1.20;;;22.70;28.30;;;;;;4971144;28;20229;-55
2021/04/15 02:31:21;;;;;;;0.90;0.90;;;22.70;28.30;;;;;;4971109;28;20262;-53
2021/04/15 02:33:47;;;;;;;0.90;0.90;;;22.70;28.30;;;;;;4959080;28;20216;-56
2021/04/15 02:36:13;;;;;;;0.97;0.97;;;22.70;28.40;;;;;;4972099;28;20582;-55
2021/04/15 02:38:39;;;;;;;0.83;0.83;;;22.70;28.40;;;;;;4970709;28;20199;-54
2021/04/15 02:41:05;;;;;;;0.83;0.83;;;22.70;28.40;;;;;;4971371;28;20208;-54
2021/04/15 02:43:31;;;;;;;0.90;0.90;;;22.70;28.40;;;;;;4971473;28;20245;-53
2021/04/15 02:45:57;;;;;;;0.90;0.90;;;22.70;28.40;;;;;;4970954;28;20549;-55
2021/04/15 02:48:23;;;;;;;1.43;1.00;;;22.70;28.40;;;;;;4971329;28;20240;-55
2021/04/15 02:50:49;;;;;;;2.13;1.00;;;22.70;28.70;;;;;;4969861;28;20215;-56
2021/04/15 02:53:15;;;;;;;1.97;1.20;;;22.70;28.90;;;;;;4953238;28;20256;-55
2021/04/15 02:55:41;;;;;;;1.13;1.03;;;22.70;29.00;;;;;;4972996;28;20227;-55
2021/04/15 02:58:07;;;;;;;2.00;1.43;;;22.70;29.20;;;;;;4974666;28;20217;-57
2021/04/15 03:00:33;;;;;;;1.53;1.30;;;22.70;29.10;;;;;;4971197;28;20218;-54
2021/04/15 03:02:59;;;;;;;2.10;1.10;;;22.60;29.00;;;;;;4973908;28;20220;-54
2021/04/15 03:05:25;;;;;;;1.87;1.33;;;22.60;29.20;;;;;;4975133;28;20703;-54
2021/04/15 03:07:51;;;;;;;3.17;1.20;;;22.60;29.30;;;;;;4973358;28;20259;-55
2021/04/15 03:10:17;;;;;;;2.83;1.10;;;22.60;29.20;;;;;;4974751;28;20208;-54
2021/04/15 03:12:43;;;;;;;1.47;1.20;;;22.60;29.20;;;;;;4973340;28;20567;-53
2021/04/15 03:15:09;;;;;;;1.17;1.00;;;22.60;29.10;;;;;;4974309;28;20208;-56
2021/04/15 03:17:35;;;;;;;2.10;1.20;;;22.60;29.30;;;;;;4973988;28;20271;-56
2021/04/15 03:20:01;;;;;;;2.10;1.10;;;22.60;29.30;;;;;;4973080;28;20224;-56
2021/04/15 03:22:27;;;;;;;1.10;1.00;;;22.60;29.20;;;;;;4973293;28;20552;-56
2021/04/15 03:24:53;;;;;;;2.47;1.17;;;22.70;29.30;;;;;;4973716;28;20236;-56
2021/04/15 03:27:19;;;;;;;2.23;1.50;;;22.60;29.40;;;;;;4974066;28;20711;-56
2021/04/15 03:29:45;;;;;;;1.47;1.20;;;22.60;29.30;;;;;;4973530;28;20215;-56
2021/04/15 03:32:11;;;;;;;2.33;1.40;;;22.70;29.40;;;;;;4973650;28;20753;-55
2021/04/15 03:34:37;;;;;;;2.30;1.00;;;22.70;29.40;;;;;;4956089;28;20215;-56
2021/04/15 03:37:03;;;;;;;1.07;1.03;;;22.70;29.30;;;;;;4968379;28;20684;-56
2021/04/15 03:39:29;;;;;;;1.30;1.20;;;22.70;29.30;;;;;;4973431;28;20220;-55
2021/04/15 03:41:55;;;;;;;1.77;1.10;;;22.70;29.40;;;;;;4974462;28;20207;-55
2021/04/15 03:44:21;;;;;;;1.30;1.20;;;22.70;29.30;;;;;;4973759;28;20242;-54
2021/04/15 03:46:46;;;;;;;2.27;1.20;;;22.70;29.40;;;;;;4962859;28;20235;-53
2021/04/15 03:49:12;;;;;;;0.93;0.90;;;22.70;29.40;;;;;;4965836;28;20235;-56
2021/04/15 03:51:38;;;;;;;1.10;1.10;;;22.60;29.30;;;;;;4973463;28;20296;-56
2021/04/15 03:54:04;;;;;;;2.13;1.20;;;22.60;29.30;;;;;;4969754;28;20230;-56
2021/04/15 03:56:30;;;;;;;1.07;1.00;;;22.60;29.30;;;;;;4973192;28;20276;-56
2021/04/15 03:58:56;;;;;;;1.30;1.20;;;22.60;29.40;;;;;;4973652;28;20200;-53
2021/04/15 04:01:22;;;;;;;1.27;1.17;;;22.60;29.40;;;;;;4963553;28;20201;-55
2021/04/15 04:03:48;;;;;;;1.07;1.00;;;22.60;29.30;;;;;;4973074;28;20203;-56
2021/04/15 04:06:14;;;;;;;1.20;1.00;;;22.60;29.40;;;;;;4972671;28;20900;-55
2021/04/15 04:08:40;;;;;;;1.20;1.00;;;22.60;29.30;;;;;;4972211;28;20215;-56
2021/04/15 04:11:06;;;;;;;1.70;1.20;;;22.60;29.40;;;;;;4957073;28;22237;-56
2021/04/15 04:13:32;;;;;;;1.20;1.10;;;22.60;29.40;;;;;;4973311;28;20200;-57
2021/04/15 04:15:58;;;;;;;1.33;1.00;;;22.60;29.40;;;;;;4972039;28;20731;-56
2021/04/15 04:18:24;;;;;;;1.13;0.97;;;22.60;29.40;;;;;;4971850;28;20212;-55
2021/04/15 04:20:50;;;;;;;2.13;1.30;;;22.60;29.30;;;;;;4972427;28;20212;-55
2021/04/15 04:23:16;;;;;;;1.10;1.00;;;22.60;29.30;;;;;;4973585;28;20216;-56
2021/04/15 04:25:42;;;;;;;1.00;1.00;;;22.60;29.30;;;;;;4971287;28;20702;-56
2021/04/15 04:28:08;;;;;;;1.17;1.10;;;22.60;29.30;;;;;;4967622;28;20197;-54
2021/04/15 04:30:34;;;;;;;1.30;1.20;;;22.60;29.40;;;;;;4966737;28;20200;-55
2021/04/15 04:33:00;;;;;;;1.20;1.10;;;22.60;29.40;;;;;;4972863;28;20614;-56
2021/04/15 04:35:26;;;;;;;2.50;1.00;;;22.60;29.40;;;;;;4973122;28;20244;-56
2021/04/15 04:37:52;;;;;;;1.30;1.20;;;22.60;29.40;;;;;;4972402;28;20216;-55
2021/04/15 04:40:18;;;;;;;0.87;0.87;;;22.60;29.40;;;;;;4973016;28;20244;-52
2021/04/15 04:42:44;;;;;;;0.93;0.90;;;22.60;29.30;;;;;;4972380;28;20262;-54
2021/04/15 04:45:10;;;;;;;1.13;1.10;;;22.60;29.30;;;;;;4972208;28;20247;-55
2021/04/15 04:47:36;;;;;;;1.10;1.00;;;22.60;29.40;;;;;;4972932;28;20577;-55
2021/04/15 04:50:02;;;;;;;1.00;0.90;;;22.60;29.30;;;;;;4972106;28;20207;-56
2021/04/15 04:52:28;;;;;;;1.58;1.00;;;22.60;29.40;;;;;;4972222;28;20548;-55
2021/04/15 04:54:54;;;;;;;1.20;1.10;;;22.60;29.40;;;;;;4972532;28;20204;-55
2021/04/15 04:57:20;;;;;;;4.00;1.20;;;22.60;29.50;;;;;;4971700;28;20652;-56
2021/04/15 04:59:46;;;;;;;1.67;1.20;;;22.60;29.40;;;;;;4972201;28;20321;-52
2021/04/15 05:02:11;;;;;;;2.50;1.03;;;22.60;29.60;;;;;;4973085;28;20633;-55
2021/04/15 05:04:37;;;;;;;2.37;1.03;;;22.60;29.50;;;;;;4972472;28;20226;-55
2021/04/15 05:07:03;;;;;;;1.00;1.00;;;22.60;29.60;;;;;;4971219;28;20230;-55
2021/04/15 05:09:29;;;;;;;1.23;1.13;;;22.60;29.60;;;;;;4970515;28;20208;-55
2021/04/15 05:11:55;;;;;;;2.93;1.10;;;22.60;29.50;;;;;;4972645;28;20212;-54
2021/04/15 05:14:21;;;;;;;1.30;1.20;;;22.60;29.50;;;;;;4970818;28;20208;-56
2021/04/15 05:16:47;;;;;;;1.30;1.20;;;22.60;29.70;;;;;;4982203;28;20223;-54
2021/04/15 05:19:13;;;;;;;2.43;1.20;;;22.60;29.50;;;;;;4971244;28;20211;-54
2021/04/15 05:21:39;;;;;;;1.20;1.10;;;22.60;29.50;;;;;;4972672;28;20266;-55
2021/04/15 05:24:05;;;;;;;3.27;1.13;;;22.60;29.60;;;;;;4968346;28;20207;-55
2021/04/15 05:26:31;;;;;;;1.20;1.10;;;22.60;29.60;;;;;;4964223;28;20224;-55
2021/04/15 05:28:57;;;;;;;1.00;1.00;;;22.60;29.80;;;;;;4958685;28;20208;-55
2021/04/15 05:31:23;;;;;;;1.93;1.20;;;22.60;29.60;;;;;;4971447;28;20269;-55
2021/04/15 05:33:49;;;;;;;3.53;1.30;;;22.60;29.90;;;;;;4970774;28;20211;-55
2021/04/15 05:36:15;;;;;;;2.50;1.23;;;22.60;29.90;;;;;;4972220;28;20283;-56
2021/04/15 05:38:41;;;;;;;2.87;1.10;;;22.60;29.90;;;;;;4970859;28;20208;-56
2021/04/15 05:41:07;;;;;;;1.70;1.10;;;22.60;30.10;;;;;;4968639;28;20226;-54
2021/04/15 05:43:33;;;;;;;4.03;1.23;;;22.60;30.30;;;;;;4971503;28;20212;-57
2021/04/15 05:45:59;;;;;;;6.07;1.23;;;22.60;30.40;;;;;;4971849;28;20247;-62
2021/04/15 05:48:25;;;;;;;8.70;2.40;;;22.70;30.50;;;;;;4970787;28;20798;-61
2021/04/15 05:50:51;;;;;;;7.93;4.20;;;22.50;29.40;;;;;;4969323;28;20208;-55
2021/04/15 05:53:17;;;;;;;6.90;4.47;;;20.70;21.70;;;;;;4966592;28;20214;-64
2021/04/15 05:55:43;;;;;;;5.03;4.30;;;19.10;21.80;;;;;;4967641;28;20716;-61
2021/04/15 05:58:09;;;;;;;6.60;4.03;;;18.50;21.10;;;;;;4970307;28;20240;-60
2021/04/15 06:00:35;;;;;;;5.17;4.60;;;18.60;20.20;;;;;;4971720;28;20197;-60
2021/04/15 06:03:01;;;;;;;4.23;3.50;;;18.20;20.20;;;;;;4971161;28;20321;-61
2021/04/15 06:05:27;;;;;;;3.83;3.30;;;19.30;21.00;;;;;;4966137;28;20234;-61
2021/04/15 06:07:53;;;;;;;3.30;3.00;;;20.10;21.40;;;;;;4969338;28;20265;-61
2021/04/15 06:10:19;;;;;;;7.97;2.87;;;20.60;21.90;;;;;;4971477;28;20263;-61
2021/04/15 06:12:45;;;;;;;2.50;2.30;;;21.00;22.40;;;;;;4971226;28;20690;-60
2021/04/15 06:15:11;;;;;;;2.50;2.30;;;21.20;22.90;;;;;;4970474;28;20231;-60
2021/04/15 06:17:37;;;;;;;2.83;2.20;;;21.40;23.00;;;;;;4961207;28;20202;-61
2021/04/15 06:20:03;;;;;;;2.87;2.30;;;21.60;23.50;;;;;;4971234;28;20205;-61
2021/04/15 06:22:29;;;;;;;3.10;1.87;;;21.60;23.80;;;;;;4967861;28;20240;-68
2021/04/15 06:24:55;;;;;;;1.70;1.60;;;21.80;24.40;;;;;;4970442;28;20241;-68
2021/04/15 06:27:21;;;;;;;2.73;1.80;;;21.90;24.60;;;;;;4967860;28;20277;-70
2021/04/15 06:29:47;;;;;;;2.00;1.67;;;21.90;24.90;;;;;;4962165;28;20206;-68
2021/04/15 06:32:13;;;;;;;3.50;1.63;;;22.00;25.00;;;;;;4975003;28;20205;-67
2021/04/15 06:34:39;;;;;;;3.37;3.07;;;22.10;25.40;;;;;;4975166;28;20225;-60
2021/04/15 06:37:05;;;;;;;4.33;2.50;;;21.80;22.80;;;;;;4965961;28;20213;-61
2021/04/15 06:39:31;;;;;;;2.50;1.90;;;21.70;24.10;;;;;;4974270;28;20637;-62
2021/04/15 06:41:57;;;;;;;4.30;1.87;;;21.90;24.90;;;;;;4972311;28;20272;-63
2021/04/15 06:44:23;;;;;;;2.60;1.67;;;22.00;25.10;;;;;;4972099;28;20236;-64
2021/04/15 06:46:49;;;;;;;1.70;1.53;;;22.00;25.30;;;;;;4971623;28;20267;-63
2021/04/15 06:49:15;;;;;;;2.33;1.30;;;22.10;25.60;;;;;;4971430;28;20208;-62
2021/04/15 06:51:41;;;;;;;2.50;1.50;;;22.10;25.80;;;;;;4973900;28;20621;-62
2021/04/15 06:54:07;;;;;;;2.70;1.40;;;22.20;25.90;;;;;;4972447;28;20243;-62
2021/04/15 06:56:33;;;;;;;2.23;1.47;;;22.20;26.00;;;;;;4973812;28;20232;-64
2021/04/15 06:58:59;;;;;;;2.27;1.40;;;22.20;26.20;;;;;;4968330;28;20317;-55
2021/04/15 07:01:24;;;;;;;1.40;1.30;;;22.20;26.30;;;;;;4973497;28;20570;-61
2021/04/15 07:03:50;;;;;;;1.70;1.30;;;22.20;26.30;;;;;;4974004;28;20214;-62
2021/04/15 07:06:16;;;;;;;1.40;1.20;;;22.20;26.60;;;;;;4971372;28;20247;-62
2021/04/15 07:08:42;;;;;;;2.87;1.30;;;22.20;26.60;;;;;;4964981;28;20211;-62
2021/04/15 07:11:08;;;;;;;1.50;1.40;;;22.20;26.70;;;;;;4972564;28;20209;-62
2021/04/15 07:13:34;;;;;;;11.67;2.00;;;22.20;26.60;;;;;;4973347;28;20568;-60
2021/04/15 07:16:00;;;;;;;3.60;1.50;;;22.30;27.40;;;;;;4973430;28;20226;-66
2021/04/15 07:18:26;;;;;;;4.47;2.20;;;22.40;27.40;;;;;;4973095;28;20208;-67
2021/04/15 07:20:52;;;;;;;7.43;2.43;;;22.30;25.30;;;;;;4973519;28;20211;-61
2021/04/15 07:23:18;;;;;;;3.20;1.53;;;22.20;25.60;;;;;;4972404;28;20207;-59
2021/04/15 07:25:44;;;;;;;2.67;1.93;;;22.30;26.90;;;;;;4971289;28;20333;-58
2021/04/15 07:28:10;;;;;;;2.63;1.53;;;22.30;27.00;;;;;;4971830;28;20211;-60
2021/04/15 07:30:36;;;;;;;2.83;1.50;;;22.30;26.70;;;;;;4972888;28;20207;-58
2021/04/15 07:33:02;;;;;;;4.10;1.60;;;22.30;27.00;;;;;;4973939;28;20625;-59
2021/04/15 07:35:28;;;;;;;3.33;1.70;;;22.30;27.00;;;;;;4973180;28;20345;-58
2021/04/15 07:37:54;;;;;;;2.17;1.53;;;22.40;27.60;;;;;;4971056;28;20214;-60
2021/04/15 07:40:20;;;;;;;2.60;1.50;;;22.40;27.50;;;;;;4972636;28;20633;-61
2021/04/15 07:42:46;;;;;;;1.97;1.40;;;22.50;27.50;;;;;;4969978;28;20674;-64
2021/04/15 07:45:12;;;;;;;2.07;1.80;;;22.50;27.60;;;;;;4973050;28;20234;-63
2021/04/15 07:47:38;;;;;;;3.73;1.97;;;22.40;26.80;;;;;;4972349;28;20203;-62
2021/04/15 07:50:04;;;;;;;4.67;2.27;;;22.40;26.80;;;;;;4974275;28;20289;-63
2021/04/15 07:52:30;;;;;;;2.90;1.70;;;22.30;26.70;;;;;;4972646;28;20674;-59
2021/04/15 07:54:56;;;;;;;2.43;1.67;;;22.30;26.70;;;;;;4972288;28;20226;-59
2021/04/15 07:57:22;;;;;;;3.53;1.77;;;22.30;27.60;;;;;;4971918;28;20206;-62
2021/04/15 07:59:48;;;;;;;1.93;1.47;;;22.40;27.60;;;;;;4972173;28;20238;-69
2021/04/15 08:02:14;;;;;;;3.80;1.47;;;22.40;27.30;;;;;;4973394;28;20211;-63
2021/04/15 08:04:40;;;;;;;1.80;1.50;;;22.40;27.30;;;;;;4964498;28;20234;-66
2021/04/15 08:07:06;;;;;;;1.60;1.20;;;22.40;27.30;;;;;;4968515;28;20202;-61
2021/04/15 08:09:32;;;;;;;4.77;2.07;;;22.40;27.40;;;;;;4970578;28;21472;-63
2021/04/15 08:11:58;;;;;;;2.07;1.60;;;22.50;27.60;;;;;;4968378;28;20330;-63
2021/04/15 08:14:24;;;;;;;3.83;1.73;;;22.40;27.40;;;;;;4973042;28;20240;-59
2021/04/15 08:16:50;;;;;;;3.07;1.40;;;22.40;27.60;;;;;;4968698;28;20286;-59
2021/04/15 08:19:16;;;;;;;2.73;1.60;;;22.50;27.60;;;;;;4971413;28;20259;-58
2021/04/15 08:21:42;;;;;;;2.57;1.60;;;22.50;27.50;;;;;;4971211;28;20210;-59
2021/04/15 08:24:08;;;;;;;2.37;1.70;;;22.50;27.50;;;;;;4971903;28;20227;-58
2021/04/15 08:26:34;;;;;;;1.77;1.53;;;22.50;27.00;;;;;;4970566;28;20203;-59
2021/04/15 08:29:00;;;;;;;2.43;1.60;;;22.50;27.30;;;;;;4973387;28;20220;-59
2021/04/15 08:31:26;;;;;;;3.50;2.43;;;22.50;27.30;;;;;;4970526;28;20617;-58
2021/04/15 08:33:52;;;;;;;3.43;2.10;;;22.20;26.40;;;;;;4972112;28;20212;-60
2021/04/15 08:36:18;;;;;;;5.33;2.43;;;22.40;27.00;;;;;;4971635;28;20624;-61
2021/04/15 08:38:44;;;;;;;4.30;1.90;;;22.50;27.70;;;;;;4971528;28;20219;-60
2021/04/15 08:41:10;;;;;;;3.13;1.80;;;22.50;28.10;;;;;;4971407;28;20634;-61
2021/04/15 08:43:37;;;;;;;2.97;1.73;;;22.50;27.70;;;;;;4972267;28;20259;-61
2021/04/15 08:46:03;;;;;;;3.03;1.60;;;22.50;27.70;;;;;;4972411;28;20305;-61
2021/04/15 08:48:29;;;;;;;2.10;1.50;;;22.50;27.70;;;;;;4971750;28;20214;-60
2021/04/15 08:50:55;;;;;;;2.23;1.60;;;22.50;27.70;;;;;;4971289;28;20203;-59
2021/04/15 08:53:21;;;;;;;1.50;1.40;;;22.50;28.00;;;;;;4969750;28;20671;-59
2021/04/15 08:55:47;;;;;;;1.50;1.40;;;22.50;27.70;;;;;;4971425;28;20229;-60
2021/04/15 08:58:13;;;;;;;2.73;1.90;;;22.50;27.70;;;;;;4971817;28;20200;-63
2021/04/15 09:00:39;;;;;;;3.70;1.77;;;22.50;27.70;;;;;;4968762;28;20571;-64
2021/04/15 09:03:05;;;;;;;2.13;1.37;;;22.50;27.70;;;;;;4971884;28;20259;-73
2021/04/15 09:05:31;;;;;;;2.23;1.40;;;22.60;27.70;;;;;;4970199;28;20237;-70
2021/04/15 09:07:58;;;;;;;2.47;1.70;;;22.50;27.70;;;;;;4971095;28;20218;-65
2021/04/15 09:10:24;;;;;;;3.20;1.60;;;22.60;27.70;;;;;;4971341;28;20230;-71
2021/04/15 09:12:50;;;;;;;1.70;1.30;;;22.60;27.70;;;;;;4972780;28;20213;-65
2021/04/15 09:15:16;;;;;;;1.70;1.60;;;22.60;27.80;;;;;;4971370;28;20238;-66
2021/04/15 09:17:42;;;;;;;2.67;1.57;;;22.60;27.70;;;;;;4970566;28;20198;-62
2021/04/15 09:20:08;;;;;;;2.30;1.60;;;22.60;27.70;;;;;;4971084;28;20265;-59
2021/04/15 09:22:34;;;;;;;3.00;1.70;;;22.60;28.30;;;;;;4971524;28;20214;-66
2021/04/15 09:25:00;;;;;;;4.27;1.47;;;22.60;27.80;;;;;;4970480;28;20645;-71
2021/04/15 09:27:26;;;;;;;3.00;1.30;;;22.60;27.70;;;;;;4969107;28;20215;-69
2021/04/15 09:29:54;;;;;;;1.70;1.60;;;22.60;27.80;;;;;;4971698;28;20543;-65
2021/04/15 09:32:20;;;;;;;3.03;1.60;;;22.60;27.70;;;;;;4964203;28;20208;-59
2021/04/15 09:34:46;;;;;;;2.47;1.90;;;22.70;27.80;;;;;;4970827;28;20227;-65
2021/04/15 09:37:12;;;;;;;2.17;1.60;;;22.60;27.70;;;;;;4968196;28;20620;-61
2021/04/15 09:39:38;;;;;;;2.77;1.67;;;22.60;27.80;;;;;;4970767;28;20217;-65
2021/04/15 09:42:04;;;;;;;1.50;1.40;;;22.60;27.90;;;;;;4970142;28;20285;-62
2021/04/15 09:44:29;;;;;;;3.03;1.50;;;22.60;28.00;;;;;;4970988;28;20232;-75
2021/04/15 09:46:55;;;;;;;1.63;1.53;;;22.60;28.10;;;;;;4970102;28;20253;-66
2021/04/15 09:49:21;;;;;;;2.20;1.30;;;22.60;28.10;;;;;;4964184;28;20211;-67
2021/04/15 09:51:47;;;;;;;1.53;1.43;;;22.70;28.20;;;;;;4970412;28;20207;-64
2021/04/15 09:54:13;;;;;;;2.07;1.40;;;22.60;28.40;;;;;;4970835;28;20229;-67
2021/04/15 09:56:40;;;;;;;2.33;1.50;;;22.70;28.60;;;;;;4965011;28;20208;-67
2021/04/15 09:59:06;;;;;;;3.17;1.47;;;22.70;28.60;;;;;;4971146;28;20213;-67
2021/04/15 10:01:32;;;;;;;2.33;1.70;;;22.70;28.60;;;;;;4970096;28;20207;-64
2021/04/15 10:03:58;;;;;;;3.37;1.30;;;22.70;28.70;;;;;;4969930;28;20226;-63
2021/04/15 10:06:23;;;;;;;2.33;1.70;;;22.70;28.70;;;;;;4973525;28;20227;-61
2021/04/15 10:08:49;;;;;;;1.50;1.40;;;22.70;28.60;;;;;;4974696;28;20227;-65
2021/04/15 10:11:15;;;;;;;2.67;1.80;;;22.70;28.60;;;;;;4962852;28;20208;-62
2021/04/15 10:13:41;;;;;;;1.70;1.40;;;22.70;28.60;;;;;;4973830;28;20869;-62
2021/04/15 10:16:07;;;;;;;3.57;1.90;;;22.70;28.50;;;;;;4975799;28;20198;-64
2021/04/15 10:18:33;;;;;;;4.00;1.40;;;22.70;28.30;;;;;;4974333;28;20262;-71
2021/04/15 10:20:59;;;;;;;1.73;1.30;;;22.70;28.40;;;;;;4974976;28;20220;-63
2021/04/15 10:23:26;;;;;;;2.47;1.50;;;22.70;28.60;;;;;;4974632;28;20199;-64
2021/04/15 10:25:52;;;;;;;4.23;1.90;;;22.70;28.60;;;;;;4974897;28;20302;-63
2021/04/15 10:28:18;;;;;;;1.92;1.52;;;22.70;28.30;;;;;;4974573;28;20648;-63
2021/04/15 10:30:44;;;;;;;1.70;1.30;;;22.70;28.30;;;;;;4973139;28;20239;-68
2021/04/15 10:33:10;;;;;;;4.40;2.20;;;22.70;28.60;;;;;;4974210;28;20518;-62
2021/04/15 10:35:36;;;;;;;3.60;1.83;;;22.50;27.70;;;;;;4975052;28;20248;-62
2021/04/15 10:38:02;;;;;;;2.07;1.60;;;22.60;28.80;;;;;;4973912;28;20212;-61
2021/04/15 10:40:28;;;;;;;2.33;1.60;;;22.70;28.80;;;;;;4975051;28;20202;-60
2021/04/15 10:42:54;;;;;;;4.03;1.70;;;22.70;29.10;;;;;;4974733;28;20204;-61
2021/04/15 10:45:20;;;;;;;4.77;2.17;;;22.70;29.30;;;;;;4971057;28;20684;-63
2021/04/15 10:47:46;;;;;;;3.80;1.77;;;22.70;29.20;;;;;;4971350;28;20221;-60
2021/04/15 10:50:12;;;;;;;5.90;1.80;;;22.70;29.10;;;;;;4973773;28;20204;-62
2021/04/15 10:52:38;;;;;;;5.23;2.00;;;22.70;29.10;;;;;;4964342;28;20227;-60
2021/04/15 10:55:04;;;;;;;3.53;1.83;;;22.70;29.70;;;;;;4969441;28;20236;-60
2021/04/15 10:57:30;;;;;;;3.50;1.70;;;22.70;29.40;;;;;;4974461;28;20549;-61
2021/04/15 10:59:56;;;;;;;6.30;2.00;;;22.70;29.90;;;;;;4971168;28;20215;-60
2021/04/15 11:02:22;;;;;;;4.87;1.90;;;22.70;29.90;;;;;;4969322;28;20699;-61
2021/04/15 11:04:48;;;;;;;3.53;2.03;;;22.70;29.80;;;;;;4972306;28;20282;-59
2021/04/15 11:07:13;;;;;;;3.13;1.70;;;22.70;29.60;;;;;;4970669;28;20211;-60
2021/04/15 11:09:39;;;;;;;4.10;1.83;;;22.70;29.50;;;;;;4971870;28;20216;-61
2021/04/15 11:12:05;;;;;;;3.50;1.90;;;22.60;29.40;;;;;;4976169;28;20200;-61
2021/04/15 11:14:34;;;;;;;4.40;2.57;;;22.60;29.50;;;;;;4981754;28;20233;-59
2021/04/15 11:17:00;;;;;;;2.93;2.03;;;22.60;29.60;;;;;;4968183;28;20204;-61
2021/04/15 11:19:26;;;;;;;4.93;1.93;;;22.60;29.70;;;;;;4971823;28;20572;-59
2021/04/15 11:21:53;;;;;;;3.80;2.50;;;22.60;29.80;;;;;;4973944;28;20205;-59
2021/04/15 11:24:19;;;;;;;5.13;2.30;;;22.60;30.00;;;;;;4968747;28;20711;-60
2021/04/15 11:26:45;;;;;;;6.87;2.37;;;22.60;30.10;;;;;;4967285;28;20267;-60
2021/04/15 11:29:11;;;;;;;4.93;2.23;;;22.60;28.60;;;;;;4973850;28;20249;-60
2021/04/15 11:31:38;;;;;;;3.77;2.03;;;22.50;29.20;;;;;;4969929;28;20685;-60
2021/04/15 11:34:04;;;;;;;6.27;2.20;;;22.50;29.30;;;;;;4986926;28;20223;-60
2021/04/15 11:36:30;;;;;;;4.73;2.27;;;22.50;29.90;;;;;;4973352;28;20676;-60
2021/04/15 11:38:56;;;;;;;3.53;2.20;;;22.50;29.90;;;;;;4972681;28;20211;-60
2021/04/15 11:41:22;;;;;;;4.87;2.43;;;22.60;30.10;;;;;;4974016;28;20207;-59
2021/04/15 11:43:48;;;;;;;3.20;2.00;;;22.60;30.00;;;;;;4973669;28;20252;-59
2021/04/15 11:46:14;;;;;;;5.40;2.10;;;22.60;29.90;;;;;;4973083;28;20236;-60
2021/04/15 11:48:40;;;;;;;3.00;1.83;;;22.60;29.60;;;;;;4967995;28;20685;-60
2021/04/15 11:51:06;;;;;;;2.87;1.73;;;22.60;29.60;;;;;;4973241;28;20538;-58
2021/04/15 11:53:32;;;;;;;3.57;1.83;;;22.60;29.40;;;;;;4972723;28;20711;-59
2021/04/15 11:55:58;;;;;;;4.93;2.20;;;22.60;29.40;;;;;;4971662;28;20247;-58
2021/04/15 11:58:24;;;;;;;2.70;1.90;;;22.60;29.40;;;;;;4973211;28;20200;-58
2021/04/15 12:00:50;;;;;;;3.83;1.70;;;22.60;29.40;;;;;;4973673;28;20565;-58
2021/04/15 12:03:16;;;;;;;4.90;1.87;;;22.60;29.40;;;;;;4972761;28;20224;-59
2021/04/15 12:05:42;;;;;;;3.77;1.80;;;22.60;29.50;;;;;;4964497;28;20315;-58
2021/04/15 12:08:08;;;;;;;3.87;2.10;;;22.60;30.00;;;;;;4971663;28;20220;-59
2021/04/15 12:10:34;;;;;;;3.20;1.90;;;22.60;29.50;;;;;;4971557;28;20232;-59
2021/04/15 12:13:00;;;;;;;4.13;2.13;;;22.60;29.60;;;;;;4972392;28;20206;-58
2021/04/15 12:15:26;;;;;;;3.57;2.03;;;22.60;29.60;;;;;;4973040;28;20204;-58
2021/04/15 12:17:53;;;;;;;4.10;1.80;;;22.60;29.60;;;;;;4972123;28;20317;-59
2021/04/15 12:20:19;;;;;;;3.73;1.57;;;22.60;29.60;;;;;;4972917;28;20293;-59
2021/04/15 12:22:45;;;;;;;3.53;1.90;;;22.60;29.70;;;;;;4973562;28;20216;-59
2021/04/15 12:25:11;;;;;;;4.43;1.90;;;22.60;29.80;;;;;;4972217;28;20265;-59
2021/04/15 12:27:37;;;;;;;2.70;1.90;;;22.60;29.90;;;;;;4971150;28;20206;-59
2021/04/15 12:30:03;;;;;;;2.00;1.80;;;22.60;29.90;;;;;;4972865;28;20262;-59
2021/04/15 12:32:29;;;;;;;1.93;1.50;;;22.60;29.90;;;;;;4969754;28;20200;-59
2021/04/15 12:34:55;;;;;;;3.87;1.70;;;22.60;29.90;;;;;;4969209;28;20232;-59
2021/04/15 12:37:21;;;;;;;3.07;1.73;;;22.60;29.90;;;;;;4970433;28;20203;-59
2021/04/15 12:39:47;;;;;;;4.17;1.80;;;22.60;29.90;;;;;;4971622;28;20262;-59
2021/04/15 12:42:13;;;;;;;2.23;1.50;;;22.60;29.90;;;;;;4972045;28;20212;-59